createdAt,value
2023-08-04T00:00:28.419Z,5.10
2023-08-04T00:02:54.807Z,4.63
2023-08-04T00:05:21.196Z,4.50
2023-08-04T00:07:47.570Z,4.97
2023-08-04T00:10:14.000Z,4.63
2023-08-04T00:12:40.387Z,4.50
2023-08-04T00:15:07.492Z,4.72
2023-08-04T00:17:33.950Z,5.35
2023-08-04T00:20:00.323Z,4.05
2023-08-04T00:22:26.954Z,4.65
2023-08-04T00:24:53.332Z,4.28
2023-08-04T00:27:19.693Z,4.40
2023-08-04T00:29:46.056Z,4.60
2023-08-04T00:32:12.425Z,4.13
2023-08-04T00:34:38.843Z,4.45
2023-08-04T00:37:05.217Z,4.10
2023-08-04T00:39:31.574Z,3.88
2023-08-04T00:41:57.939Z,3.60
2023-08-04T00:44:24.329Z,4.05
2023-08-04T00:46:51.092Z,4.80
2023-08-04T00:49:17.650Z,4.43
2023-08-04T00:51:44.333Z,4.80
2023-08-04T00:54:10.875Z,3.65
2023-08-04T00:56:38.188Z,4.30
2023-08-04T00:59:04.600Z,5.03
2023-08-04T01:01:31.029Z,4.45
2023-08-04T01:03:59.295Z,4.35
2023-08-04T01:06:44.257Z,4.18
2023-08-04T01:09:31.249Z,5.13
2023-08-04T01:12:17.055Z,5.10
2023-08-04T01:14:48.027Z,5.10
2023-08-04T01:17:27.545Z,4.20
2023-08-04T01:19:54.681Z,5.25
2023-08-04T01:22:22.082Z,5.00
2023-08-04T01:24:52.215Z,5.13
2023-08-04T01:27:24.066Z,4.93
2023-08-04T01:29:50.879Z,5.80
2023-08-04T01:32:17.394Z,4.85
2023-08-04T01:34:43.809Z,5.25
2023-08-04T01:37:10.162Z,5.70
2023-08-04T01:39:38.203Z,5.30
2023-08-04T01:42:05.209Z,5.50
2023-08-04T01:44:31.664Z,5.03
2023-08-04T01:46:58.010Z,5.68
2023-08-04T01:49:24.394Z,5.28
2023-08-04T01:51:50.734Z,5.68
2023-08-04T01:54:17.238Z,5.30
2023-08-04T01:56:43.614Z,5.75
2023-08-04T01:59:09.978Z,5.18
2023-08-04T02:01:36.420Z,5.90
2023-08-04T02:04:02.860Z,5.40
2023-08-04T02:06:29.292Z,5.53
2023-08-04T02:08:55.692Z,5.00
2023-08-04T02:11:22.076Z,5.78
2023-08-04T02:13:48.440Z,5.72
2023-08-04T02:16:14.823Z,5.40
2023-08-04T02:18:41.216Z,5.82
2023-08-04T02:21:07.625Z,5.45
2023-08-04T02:23:34.017Z,6.00
2023-08-04T02:26:00.417Z,5.07
2023-08-04T02:28:26.788Z,6.25
2023-08-04T02:30:53.160Z,6.53
2023-08-04T02:33:19.563Z,6.30
2023-08-04T02:35:45.918Z,5.55
2023-08-04T02:38:12.284Z,6.80
2023-08-04T02:40:39.161Z,7.13
2023-08-04T02:43:05.674Z,6.68
2023-08-04T02:45:32.069Z,5.72
2023-08-04T02:47:58.436Z,5.97
2023-08-04T02:50:24.897Z,6.55
2023-08-04T02:52:51.243Z,6.65
2023-08-04T02:55:17.603Z,6.97
2023-08-04T02:57:43.984Z,6.32
2023-08-04T03:00:10.618Z,6.38
2023-08-04T03:02:37.060Z,7.47
2023-08-04T03:05:03.549Z,6.50
2023-08-04T03:07:29.900Z,6.68
2023-08-04T03:09:56.272Z,6.60
2023-08-04T03:12:22.661Z,6.80
2023-08-04T03:14:49.270Z,6.80
2023-08-04T03:17:15.617Z,7.10
2023-08-04T03:19:41.969Z,7.25
2023-08-04T03:22:08.344Z,8.40
2023-08-04T03:24:34.727Z,7.30
2023-08-04T03:27:01.163Z,6.78
2023-08-04T03:29:27.529Z,8.20
2023-08-04T03:31:53.890Z,8.13
2023-08-04T03:34:20.322Z,8.07
2023-08-04T03:36:46.711Z,7.47
2023-08-04T03:39:13.130Z,7.10
2023-08-04T03:41:39.487Z,6.90
2023-08-04T03:44:07.201Z,7.18
2023-08-04T03:46:35.725Z,6.82
2023-08-04T03:49:02.151Z,7.13
2023-08-04T03:51:28.557Z,7.13
2023-08-04T03:53:54.957Z,6.88
2023-08-04T03:56:21.374Z,6.97
2023-08-04T03:58:48.227Z,6.53
2023-08-04T04:01:15.966Z,6.50
2023-08-04T04:03:42.350Z,7.97
2023-08-04T04:06:08.778Z,7.07
2023-08-04T04:08:35.135Z,6.43
2023-08-04T04:11:01.607Z,7.07
2023-08-04T04:13:27.961Z,6.78
2023-08-04T04:15:54.349Z,6.60
2023-08-04T04:18:20.768Z,6.68
2023-08-04T04:20:47.137Z,6.50
2023-08-04T04:23:13.479Z,6.70
2023-08-04T04:25:40.206Z,6.70
2023-08-04T04:28:06.555Z,6.93
2023-08-04T04:30:32.920Z,6.10
2023-08-04T04:32:59.331Z,6.10
2023-08-04T04:35:25.776Z,5.95
2023-08-04T04:37:52.157Z,7.10
2023-08-04T04:40:18.618Z,7.28
2023-08-04T04:42:44.995Z,6.50
2023-08-04T04:45:12.144Z,6.90
2023-08-04T04:47:38.588Z,7.05
2023-08-04T04:50:05.858Z,7.38
2023-08-04T04:52:34.487Z,6.85
2023-08-04T04:55:01.040Z,6.28
2023-08-04T04:57:28.266Z,7.10
2023-08-04T04:59:54.700Z,5.72
2023-08-04T05:02:21.284Z,7.38
2023-08-04T05:04:48.475Z,7.97
2023-08-04T05:07:15.047Z,6.50
2023-08-04T05:09:42.515Z,7.53
2023-08-04T05:12:08.910Z,7.28
2023-08-04T05:14:35.416Z,5.25
2023-08-04T05:17:01.780Z,6.85
2023-08-04T05:19:28.209Z,5.15
2023-08-04T05:21:54.557Z,7.20
2023-08-04T05:24:20.932Z,5.18
2023-08-04T05:26:47.349Z,6.43
2023-08-04T05:29:13.721Z,6.60
2023-08-04T05:31:40.127Z,6.35
2023-08-04T05:34:06.513Z,5.57
2023-08-04T05:36:33.165Z,6.13
2023-08-04T05:38:59.545Z,5.55
2023-08-04T05:41:25.925Z,5.35
2023-08-04T05:43:52.303Z,7.47
2023-08-04T05:46:18.787Z,5.93
2023-08-04T05:48:45.295Z,5.55
2023-08-04T05:51:11.741Z,5.03
2023-08-04T05:53:38.172Z,6.20
2023-08-04T05:56:04.608Z,5.15
2023-08-04T05:58:30.982Z,5.30
2023-08-04T06:00:57.378Z,5.25
2023-08-04T06:03:23.793Z,6.35
2023-08-04T06:05:50.164Z,5.60
2023-08-04T06:08:16.588Z,5.22
2023-08-04T06:10:43.053Z,5.05
2023-08-04T06:13:09.505Z,4.50
2023-08-04T06:15:35.870Z,5.28
2023-08-04T06:18:02.581Z,4.53
2023-08-04T06:20:29.531Z,5.72
2023-08-04T06:22:55.999Z,4.72
2023-08-04T06:25:22.451Z,5.00
2023-08-04T06:27:48.851Z,4.75
2023-08-04T06:30:15.303Z,4.13
2023-08-04T06:32:41.716Z,4.22
2023-08-04T06:35:08.782Z,3.38
2023-08-04T06:37:35.487Z,3.70
2023-08-04T06:40:01.842Z,4.50
2023-08-04T06:42:28.257Z,4.00
2023-08-04T06:44:54.633Z,4.30
2023-08-04T06:47:21.073Z,3.85
2023-08-04T06:49:47.471Z,4.20
2023-08-04T06:52:13.971Z,4.35
2023-08-04T06:54:40.338Z,4.57
2023-08-04T06:57:07.058Z,4.07
2023-08-04T06:59:34.483Z,3.13
2023-08-04T07:02:00.872Z,3.30
2023-08-04T07:04:27.266Z,3.38
2023-08-04T07:06:54.917Z,3.42
2023-08-04T07:09:21.279Z,3.35
2023-08-04T07:11:47.966Z,2.85
2023-08-04T07:14:14.493Z,3.10
2023-08-04T07:16:40.853Z,3.33
2023-08-04T07:19:07.271Z,3.00
2023-08-04T07:21:33.688Z,3.15
2023-08-04T07:24:00.058Z,2.85
2023-08-04T07:26:26.419Z,2.55
2023-08-04T07:28:52.876Z,2.97
2023-08-04T07:31:19.323Z,3.05
2023-08-04T07:33:45.727Z,3.05
2023-08-04T07:36:12.126Z,2.72
2023-08-04T07:38:38.628Z,2.58
2023-08-04T07:41:05.064Z,2.67
2023-08-04T07:43:31.481Z,2.25
2023-08-04T07:45:57.883Z,2.55
2023-08-04T07:48:24.316Z,2.88
2023-08-04T07:50:51.704Z,2.88
2023-08-04T07:53:18.935Z,2.45
2023-08-04T07:55:58.731Z,2.80
2023-08-04T07:58:26.008Z,2.50
2023-08-04T08:00:52.535Z,2.60
2023-08-04T08:03:19.102Z,2.55
2023-08-04T08:05:45.651Z,2.80
2023-08-04T08:08:12.092Z,2.33
2023-08-04T08:10:38.499Z,2.75
2023-08-04T08:13:05.001Z,2.70
2023-08-04T08:15:31.423Z,2.42
2023-08-04T08:17:57.837Z,2.00
2023-08-04T08:20:24.224Z,2.45
2023-08-04T08:22:50.620Z,2.03
2023-08-04T08:25:17.082Z,1.80
2023-08-04T08:27:43.474Z,2.40
2023-08-04T08:30:10.338Z,2.05
2023-08-04T08:32:36.738Z,2.30
2023-08-04T08:35:03.222Z,2.15
2023-08-04T08:37:29.596Z,2.30
2023-08-04T08:39:55.968Z,1.75
2023-08-04T08:42:22.456Z,2.28
2023-08-04T08:44:50.010Z,1.98
2023-08-04T08:47:18.205Z,2.28
2023-08-04T08:49:46.582Z,1.52
2023-08-04T08:52:12.992Z,1.92
2023-08-04T08:54:39.851Z,1.35
2023-08-04T08:57:07.187Z,1.52
2023-08-04T08:59:34.024Z,1.30
2023-08-04T09:02:02.793Z,1.55
2023-08-04T09:04:34.370Z,1.38
2023-08-04T09:07:00.969Z,1.15
2023-08-04T09:09:27.341Z,1.40
2023-08-04T09:11:56.235Z,1.30
2023-08-04T09:14:22.595Z,1.33
2023-08-04T09:16:49.171Z,1.38
2023-08-04T09:19:15.565Z,1.67
2023-08-04T09:21:42.447Z,1.50
2023-08-04T09:24:10.721Z,1.42
2023-08-04T09:26:47.734Z,1.35
2023-08-04T09:29:15.174Z,1.27
2023-08-04T09:31:49.212Z,1.60
2023-08-04T09:34:15.888Z,1.30
2023-08-04T09:36:47.803Z,1.80
2023-08-04T09:39:15.169Z,1.75
2023-08-04T09:41:46.968Z,1.70
2023-08-04T09:44:14.364Z,1.25
2023-08-04T09:46:52.141Z,1.45
2023-08-04T09:49:20.800Z,1.55
2023-08-04T09:51:47.486Z,1.35
2023-08-04T09:54:14.036Z,1.50
2023-08-04T09:56:40.552Z,1.50
2023-08-04T09:59:07.464Z,1.50
2023-08-04T10:01:34.317Z,1.67
2023-08-04T10:04:02.074Z,1.50
2023-08-04T10:06:28.516Z,1.58
2023-08-04T10:08:56.286Z,1.35
2023-08-04T10:11:23.919Z,1.58
2023-08-04T10:13:53.286Z,1.48
2023-08-04T10:16:23.487Z,1.50
2023-08-04T10:18:55.873Z,1.35
2023-08-04T10:21:34.189Z,1.30
2023-08-04T10:24:03.209Z,1.27
2023-08-04T10:26:33.296Z,1.25
2023-08-04T10:29:05.689Z,1.60
2023-08-04T10:31:51.171Z,1.02
2023-08-04T10:34:33.880Z,1.40
2023-08-04T10:37:04.608Z,1.30
2023-08-04T10:39:43.074Z,1.20
2023-08-04T10:42:12.202Z,1.05
2023-08-04T10:45:08.955Z,1.20
2023-08-04T10:48:03.730Z,1.00
2023-08-04T10:50:30.588Z,1.40
2023-08-04T10:52:57.693Z,1.17
2023-08-04T10:55:24.170Z,1.17
2023-08-04T10:57:50.525Z,1.20
2023-08-04T11:00:16.884Z,1.27
2023-08-04T11:02:43.356Z,1.38
2023-08-04T11:05:10.938Z,1.42
2023-08-04T11:07:37.461Z,1.40
2023-08-04T11:10:07.825Z,1.27
2023-08-04T11:12:36.259Z,1.20
2023-08-04T11:15:02.784Z,1.70
2023-08-04T11:17:29.401Z,1.33
2023-08-04T11:19:55.961Z,1.15
2023-08-04T11:22:24.326Z,1.10
2023-08-04T11:24:52.555Z,1.20
2023-08-04T11:27:19.677Z,0.95
2023-08-04T11:29:52.049Z,1.05
2023-08-04T11:32:20.978Z,0.88
2023-08-04T11:34:51.254Z,1.60
2023-08-04T11:37:18.830Z,1.00
2023-08-04T11:39:45.182Z,0.75
2023-08-04T11:42:12.859Z,1.10
2023-08-04T11:44:46.209Z,0.95
2023-08-04T11:47:14.794Z,0.80
2023-08-04T11:49:41.830Z,1.35
2023-08-04T11:52:12.417Z,1.00
2023-08-04T11:54:57.433Z,1.20
2023-08-04T11:59:51.466Z,0.63
2023-08-04T12:02:18.243Z,0.90
2023-08-04T12:04:45.506Z,0.70
2023-08-04T12:07:12.620Z,0.82
2023-08-04T12:09:39.151Z,0.43
2023-08-04T12:12:06.720Z,0.60
2023-08-04T12:14:38.718Z,0.73
2023-08-04T12:17:11.157Z,0.50
2023-08-04T12:19:37.849Z,0.40
2023-08-04T12:22:04.513Z,0.47
2023-08-04T12:24:32.220Z,0.65
2023-08-04T12:26:58.885Z,0.50
2023-08-04T12:29:26.474Z,0.77
2023-08-04T12:31:53.231Z,0.60
2023-08-04T12:34:22.476Z,0.57
2023-08-04T12:36:49.730Z,1.13
2023-08-04T12:39:16.185Z,0.68
2023-08-04T12:41:42.552Z,0.50
2023-08-04T12:44:08.943Z,0.52
2023-08-04T12:46:35.444Z,0.73
2023-08-04T12:49:01.910Z,0.30
2023-08-04T12:51:28.430Z,0.47
2023-08-04T12:53:54.787Z,0.43
2023-08-04T12:56:21.195Z,0.40
2023-08-04T12:58:47.623Z,0.50
2023-08-04T13:01:14.072Z,0.60
2023-08-04T13:03:40.512Z,0.50
2023-08-04T13:06:06.906Z,0.52
2023-08-04T13:08:33.256Z,0.35
2023-08-04T13:11:00.919Z,0.40
2023-08-04T13:13:27.875Z,0.50
2023-08-04T13:15:54.284Z,0.40
2023-08-04T13:18:20.894Z,0.55
2023-08-04T13:20:47.269Z,0.57
2023-08-04T13:23:13.666Z,0.50
2023-08-04T13:25:41.282Z,0.65
2023-08-04T13:28:07.831Z,0.68
2023-08-04T13:30:35.780Z,0.50
2023-08-04T13:33:02.908Z,0.45
2023-08-04T13:35:29.606Z,0.77
2023-08-04T13:37:56.059Z,0.73
2023-08-04T13:40:22.625Z,0.90
2023-08-04T13:42:49.035Z,0.70
2023-08-04T13:45:15.415Z,0.70
2023-08-04T13:47:42.648Z,0.80
2023-08-04T13:50:09.596Z,0.70
2023-08-04T13:52:35.978Z,0.68
2023-08-04T13:55:02.364Z,0.50
2023-08-04T13:57:40.440Z,0.63
2023-08-04T14:00:08.399Z,0.77
2023-08-04T14:02:34.837Z,0.80
2023-08-04T14:05:01.329Z,0.70
2023-08-04T14:07:27.782Z,0.73
2023-08-04T14:09:54.159Z,0.73
2023-08-04T14:12:20.509Z,0.70
2023-08-04T14:14:46.859Z,0.88
2023-08-04T14:17:13.315Z,0.90
2023-08-04T14:19:39.837Z,0.60
2023-08-04T14:22:06.339Z,0.70
2023-08-04T14:24:32.722Z,1.27
2023-08-04T14:26:59.081Z,0.70
2023-08-04T14:29:25.449Z,0.68
2023-08-04T14:31:52.147Z,0.80
2023-08-04T14:34:18.796Z,0.70
2023-08-04T14:36:45.171Z,0.70
2023-08-04T14:39:11.535Z,0.82
2023-08-04T14:41:38.005Z,0.70
2023-08-04T14:44:04.494Z,0.80
2023-08-04T14:46:31.131Z,1.05
2023-08-04T14:48:57.546Z,0.60
2023-08-04T14:51:23.933Z,0.60
2023-08-04T14:53:50.332Z,0.90
2023-08-04T14:56:16.978Z,0.70
2023-08-04T14:58:43.486Z,1.00
2023-08-04T15:01:10.169Z,0.60
2023-08-04T15:03:36.663Z,0.80
2023-08-04T15:06:13.598Z,0.70
2023-08-04T15:08:40.553Z,1.10
2023-08-04T15:11:07.909Z,0.90
2023-08-04T15:13:34.667Z,1.20
2023-08-04T15:16:02.476Z,1.25
2023-08-04T15:18:29.200Z,1.20
2023-08-04T15:20:55.956Z,1.27
2023-08-04T15:23:22.617Z,1.10
2023-08-04T15:25:49.527Z,1.20
2023-08-04T15:28:16.115Z,1.17
2023-08-04T15:30:42.628Z,1.13
2023-08-04T15:33:09.181Z,1.40
2023-08-04T15:35:35.585Z,1.60
2023-08-04T15:38:01.997Z,1.55
2023-08-04T15:40:28.475Z,1.48
2023-08-04T15:42:54.892Z,2.15
2023-08-04T15:45:21.902Z,1.70
2023-08-04T15:47:48.468Z,1.60
2023-08-04T15:50:14.995Z,1.80
2023-08-04T15:52:41.397Z,2.05
2023-08-04T15:55:13.224Z,1.88
2023-08-04T15:57:40.233Z,2.35
2023-08-04T16:00:07.252Z,2.40
2023-08-04T16:02:33.622Z,2.13
2023-08-04T16:04:59.982Z,1.98
2023-08-04T16:07:26.429Z,1.98
2023-08-04T16:09:53.194Z,2.00
2023-08-04T16:12:19.635Z,1.67
2023-08-04T16:14:46.106Z,1.33
2023-08-04T16:17:12.502Z,1.60
2023-08-04T16:19:38.842Z,1.48
2023-08-04T16:22:05.678Z,1.50
2023-08-04T16:24:32.090Z,1.63
2023-08-04T16:26:58.522Z,1.25
2023-08-04T16:29:24.889Z,1.67
2023-08-04T16:31:51.378Z,1.67
2023-08-04T16:34:17.802Z,1.42
2023-08-04T16:36:44.197Z,1.80
2023-08-04T16:39:10.591Z,1.40
2023-08-04T16:41:37.019Z,1.30
2023-08-04T16:44:03.434Z,1.52
2023-08-04T16:46:29.919Z,1.50
2023-08-04T16:48:56.314Z,1.65
2023-08-04T16:51:24.678Z,2.20
2023-08-04T16:53:52.247Z,2.65
2023-08-04T16:56:18.608Z,2.63
2023-08-04T16:58:45.005Z,2.88
2023-08-04T17:01:12.396Z,2.60
2023-08-04T17:03:38.893Z,3.13
2023-08-04T17:06:15.539Z,3.15
2023-08-04T17:08:41.986Z,2.70
2023-08-04T17:11:08.407Z,3.45
2023-08-04T17:13:35.285Z,3.10
2023-08-04T17:16:11.843Z,3.08
2023-08-04T17:18:38.892Z,3.67
2023-08-04T17:21:05.391Z,3.58
2023-08-04T17:23:31.851Z,3.55
2023-08-04T17:25:58.521Z,3.47
2023-08-04T17:28:24.997Z,3.53
2023-08-04T17:31:04.670Z,3.63
2023-08-04T17:33:32.485Z,3.55
2023-08-04T17:35:59.633Z,2.38
2023-08-04T17:38:27.083Z,1.63
2023-08-04T17:40:57.888Z,1.90
2023-08-04T17:43:24.291Z,1.77
2023-08-04T17:45:50.949Z,2.17
2023-08-04T17:48:17.348Z,1.70
2023-08-04T17:50:50.518Z,1.63
2023-08-04T17:53:16.891Z,1.83
2023-08-04T17:55:43.244Z,1.88
2023-08-04T17:58:09.607Z,2.00
2023-08-04T18:00:39.632Z,2.33
2023-08-04T18:03:06.023Z,2.20
2023-08-04T18:05:36.838Z,1.90
2023-08-04T18:08:03.435Z,2.03
2023-08-04T18:10:29.818Z,2.30
2023-08-04T18:12:56.220Z,1.70
2023-08-04T18:15:22.599Z,2.20
2023-08-04T18:17:49.108Z,2.10
2023-08-04T18:20:15.568Z,1.67
2023-08-04T18:22:41.923Z,1.90
2023-08-04T18:25:08.679Z,2.00
2023-08-04T18:27:35.040Z,1.80
2023-08-04T18:30:01.956Z,2.28
2023-08-04T18:32:28.328Z,2.45
2023-08-04T18:34:54.686Z,2.10
2023-08-04T18:37:21.060Z,2.50
2023-08-04T18:39:47.437Z,2.17
2023-08-04T18:42:13.782Z,2.30
2023-08-04T18:44:40.159Z,2.05
2023-08-04T18:47:06.827Z,2.40
2023-08-04T18:49:33.221Z,2.10
2023-08-04T18:51:59.592Z,2.50
2023-08-04T18:54:25.938Z,2.33
2023-08-04T18:56:52.347Z,2.22
2023-08-04T18:59:18.729Z,2.38
2023-08-04T19:01:45.185Z,2.10
2023-08-04T19:04:11.550Z,2.20
2023-08-04T19:06:38.159Z,2.50
2023-08-04T19:09:04.566Z,2.75
2023-08-04T19:11:31.037Z,2.35
2023-08-04T19:13:57.399Z,3.13
2023-08-04T19:16:23.810Z,3.10
2023-08-04T19:18:50.260Z,2.60
2023-08-04T19:21:17.152Z,2.53
2023-08-04T19:23:43.545Z,3.00
2023-08-04T19:26:09.906Z,2.75
2023-08-04T19:28:36.270Z,3.30
2023-08-04T19:31:02.652Z,2.97
2023-08-04T19:33:29.332Z,3.30
2023-08-04T19:35:55.741Z,3.05
2023-08-04T19:38:22.194Z,2.75
2023-08-04T19:40:56.057Z,3.30
2023-08-04T19:43:22.626Z,2.85
2023-08-04T19:46:01.508Z,2.90
2023-08-04T19:48:28.721Z,3.45
2023-08-04T19:50:55.147Z,3.03
2023-08-04T19:53:21.941Z,3.17
2023-08-04T19:56:08.379Z,3.15
2023-08-04T19:58:39.696Z,2.72
2023-08-04T20:01:11.505Z,3.05
2023-08-04T20:03:38.089Z,2.80
2023-08-04T20:06:04.709Z,2.90
2023-08-04T20:08:32.169Z,2.78
2023-08-04T20:11:00.789Z,2.80
2023-08-04T20:13:27.719Z,3.05
2023-08-04T20:15:54.273Z,3.63
2023-08-04T20:18:21.790Z,3.67
2023-08-04T20:20:55.518Z,3.30
2023-08-04T20:23:22.576Z,3.42
2023-08-04T20:25:49.293Z,3.05
2023-08-04T20:28:16.040Z,3.00
2023-08-04T20:30:42.433Z,3.55
2023-08-04T20:33:09.024Z,3.53
2023-08-04T20:35:35.471Z,3.28
2023-08-04T20:38:02.053Z,3.33
2023-08-04T20:40:28.418Z,3.20
2023-08-04T20:42:54.953Z,3.47
2023-08-04T20:45:21.326Z,3.78
2023-08-04T20:47:47.772Z,3.45
2023-08-04T20:50:14.240Z,3.60
2023-08-04T20:52:40.705Z,3.63
2023-08-04T20:55:07.433Z,3.72
2023-08-04T20:57:33.852Z,3.60
2023-08-04T21:00:00.236Z,4.10
2023-08-04T21:02:26.881Z,3.20
2023-08-04T21:04:53.315Z,2.92
2023-08-04T21:07:19.687Z,3.40
2023-08-04T21:09:46.087Z,3.03
2023-08-04T21:12:12.464Z,3.50
2023-08-04T21:14:38.908Z,3.25
2023-08-04T21:17:14.473Z,3.38
2023-08-04T21:19:40.897Z,3.80
2023-08-04T21:22:07.285Z,3.33
2023-08-04T21:24:33.674Z,4.25
2023-08-04T21:27:00.011Z,3.47
2023-08-04T21:29:26.378Z,4.00
2023-08-04T21:31:52.743Z,3.38
2023-08-04T21:34:19.133Z,3.70
2023-08-04T21:36:45.527Z,3.17
2023-08-04T21:39:11.955Z,3.55
2023-08-04T21:41:38.331Z,3.50
2023-08-04T21:44:04.945Z,3.63
2023-08-04T21:46:31.414Z,3.78
2023-08-04T21:48:57.801Z,3.88
2023-08-04T21:51:24.210Z,3.90
2023-08-04T21:53:50.561Z,3.58
2023-08-04T21:56:17.054Z,4.25
2023-08-04T21:58:43.492Z,3.92
2023-08-04T22:01:11.847Z,4.32
2023-08-04T22:03:38.497Z,4.53
2023-08-04T22:06:05.442Z,3.95
2023-08-04T22:08:32.103Z,3.83
2023-08-04T22:11:11.428Z,4.15
2023-08-04T22:13:39.724Z,4.75
2023-08-04T22:16:06.773Z,4.72
2023-08-04T22:18:33.480Z,4.07
2023-08-04T22:21:02.806Z,4.28
2023-08-04T22:23:29.206Z,4.53
2023-08-04T22:26:00.115Z,4.35
2023-08-04T22:28:27.698Z,4.65
2023-08-04T22:30:55.326Z,4.80
2023-08-04T22:33:22.965Z,4.28
2023-08-04T22:35:49.496Z,5.03
2023-08-04T22:38:16.178Z,5.03
2023-08-04T22:40:42.633Z,4.80
2023-08-04T22:43:08.997Z,4.03
2023-08-04T22:45:41.632Z,4.32
2023-08-04T22:48:08.105Z,4.28
2023-08-04T22:50:34.516Z,4.40
2023-08-04T22:53:00.954Z,4.78
2023-08-04T22:55:27.317Z,4.63
2023-08-04T22:57:53.907Z,4.90
2023-08-04T23:00:20.593Z,4.80
2023-08-04T23:02:47.882Z,4.22
2023-08-04T23:05:15.124Z,4.85
2023-08-04T23:07:42.061Z,4.80
2023-08-04T23:10:09.204Z,4.63
2023-08-04T23:12:37.562Z,4.05
2023-08-04T23:15:04.293Z,4.15
2023-08-04T23:17:31.181Z,4.20
2023-08-04T23:19:57.552Z,4.65
2023-08-04T23:22:23.949Z,4.40
2023-08-04T23:24:50.331Z,4.90
2023-08-04T23:27:16.727Z,5.38
2023-08-04T23:29:43.101Z,4.78
2023-08-04T23:32:09.445Z,4.22
2023-08-04T23:34:35.833Z,4.97
2023-08-04T23:37:02.312Z,4.63
2023-08-04T23:39:28.684Z,4.90
2023-08-04T23:41:55.087Z,4.68
2023-08-04T23:44:21.594Z,4.75
2023-08-04T23:46:48.211Z,4.88
2023-08-04T23:49:14.863Z,4.90
2023-08-04T23:51:41.248Z,5.22
2023-08-04T23:54:07.591Z,5.63
2023-08-04T23:56:33.977Z,6.05
2023-08-04T23:59:00.366Z,5.25
